createdAt,value
2017-05-23T00:00:25.601Z,0
2017-05-23T00:01:24.957Z,0
2017-05-23T00:02:25.595Z,0
2017-05-23T00:03:25.300Z,0
2017-05-23T00:04:25.641Z,0
2017-05-23T00:05:25.643Z,0
2017-05-23T00:06:40.296Z,0
2017-05-23T00:07:25.689Z,0
2017-05-23T00:08:25.429Z,0
2017-05-23T00:09:25.758Z,0
2017-05-23T00:10:25.795Z,0
2017-05-23T00:11:25.811Z,0
2017-05-23T00:12:25.815Z,0
2017-05-23T00:13:25.551Z,0
2017-05-23T00:14:25.876Z,0
2017-05-23T00:15:25.576Z,0
2017-05-23T00:16:25.626Z,0
2017-05-23T00:17:25.622Z,0
2017-05-23T00:18:40.575Z,0
2017-05-23T00:19:25.976Z,0
2017-05-23T00:20:25.998Z,0
2017-05-23T00:21:26.027Z,0
2017-05-23T00:22:40.666Z,0
2017-05-23T00:23:40.701Z,0
2017-05-23T00:25:26.124Z,0
2017-05-23T00:26:25.866Z,0
2017-05-23T00:27:26.177Z,0
2017-05-23T00:28:26.223Z,0
2017-05-23T00:29:26.229Z,0
2017-05-23T00:30:26.259Z,0
2017-05-23T00:31:26.281Z,0
2017-05-23T00:32:26.296Z,0
2017-05-23T00:33:40.937Z,0
2017-05-23T00:34:40.953Z,0
2017-05-23T00:35:26.359Z,0
2017-05-23T00:36:26.407Z,0
2017-05-23T00:38:41.062Z,0
2017-05-23T00:39:26.470Z,0
2017-05-23T00:40:26.487Z,0
2017-05-23T00:41:26.505Z,0
2017-05-23T00:42:26.531Z,0
2017-05-23T00:43:26.563Z,0
2017-05-23T00:44:26.576Z,0
2017-05-23T00:45:26.591Z,0
2017-05-23T00:46:26.625Z,0
2017-05-23T00:47:26.659Z,0
2017-05-23T00:48:26.730Z,0
2017-05-23T00:49:26.690Z,0
2017-05-23T00:50:26.712Z,0
2017-05-23T00:52:26.787Z,0
2017-05-23T00:53:26.486Z,0
2017-05-23T00:54:41.432Z,0
2017-05-23T00:55:41.443Z,0
2017-05-23T00:56:26.554Z,0
2017-05-23T00:57:41.181Z,0
2017-05-23T00:58:26.607Z,0
2017-05-23T00:59:26.626Z,0
2017-05-23T01:00:26.951Z,0
2017-05-23T01:02:26.691Z,0
2017-05-23T01:03:27.031Z,0
2017-05-23T01:04:27.036Z,0
2017-05-23T01:05:41.682Z,0
2017-05-23T01:06:27.086Z,0
2017-05-23T01:07:26.497Z,0
2017-05-23T01:08:27.130Z,0
2017-05-23T01:09:41.771Z,0
2017-05-23T01:10:27.196Z,0
2017-05-23T01:11:27.205Z,0
2017-05-23T01:12:26.932Z,0
2017-05-23T01:13:27.268Z,0
2017-05-23T01:14:41.597Z,0
2017-05-23T01:15:26.998Z,0
2017-05-23T01:16:27.371Z,0
2017-05-23T01:17:27.344Z,0
2017-05-23T01:18:41.685Z,0
2017-05-23T01:19:27.404Z,0
2017-05-23T01:20:27.112Z,0
2017-05-23T01:21:27.137Z,0
2017-05-23T01:22:27.165Z,0
2017-05-23T01:23:27.192Z,0
2017-05-23T01:24:42.130Z,0
2017-05-23T01:25:27.532Z,0
2017-05-23T01:26:42.181Z,0
2017-05-23T01:27:27.583Z,0
2017-05-23T01:28:27.613Z,0
2017-05-23T01:29:27.641Z,0
2017-05-23T01:30:27.652Z,0
2017-05-23T01:31:27.676Z,0
2017-05-23T01:32:26.780Z,0
2017-05-23T01:33:27.717Z,0
2017-05-23T01:34:42.360Z,0
2017-05-23T01:35:27.474Z,0
2017-05-23T01:36:27.492Z,0
2017-05-23T01:37:27.824Z,0
2017-05-23T01:38:27.527Z,0
2017-05-23T01:39:27.859Z,0
2017-05-23T01:40:27.896Z,0
2017-05-23T01:41:42.521Z,0
2017-05-23T01:42:27.618Z,0
2017-05-23T01:43:27.647Z,0
2017-05-23T01:44:28.033Z,0
2017-05-23T01:45:27.695Z,0
2017-05-23T01:46:28.022Z,0
2017-05-23T01:47:28.054Z,0
2017-05-23T01:48:28.075Z,0
2017-05-23T01:49:27.793Z,0
2017-05-23T01:50:27.803Z,0
2017-05-23T01:51:28.142Z,0
2017-05-23T01:52:42.777Z,0
2017-05-23T01:53:28.194Z,0
2017-05-23T01:54:27.913Z,0
2017-05-23T01:56:28.249Z,0
2017-05-23T01:58:28.289Z,0
2017-05-23T01:59:28.316Z,0
2017-05-23T02:00:28.342Z,0
2017-05-23T02:01:28.362Z,0
2017-05-23T02:02:28.398Z,0
2017-05-23T02:03:43.019Z,0
2017-05-23T02:05:28.457Z,0
2017-05-23T02:06:28.173Z,0
2017-05-23T02:09:28.567Z,0
2017-05-23T02:10:28.260Z,0
2017-05-23T02:11:28.607Z,0
2017-05-23T02:12:28.619Z,0
2017-05-23T02:13:42.952Z,0
2017-05-23T02:14:28.682Z,0
2017-05-23T02:15:28.698Z,4
2017-05-23T02:16:28.722Z,4
2017-05-23T02:17:28.744Z,4
2017-05-23T02:18:28.774Z,0
2017-05-23T02:19:28.783Z,0
2017-05-23T02:20:28.817Z,4
2017-05-23T02:21:28.832Z,4
2017-05-23T02:22:28.544Z,4
2017-05-23T02:23:28.887Z,4
2017-05-23T02:24:43.510Z,8
2017-05-23T02:25:28.622Z,8
2017-05-23T02:26:28.945Z,8
2017-05-23T02:27:28.967Z,12
2017-05-23T02:28:28.698Z,12
2017-05-23T02:29:43.613Z,12
2017-05-23T02:30:29.037Z,12
2017-05-23T02:31:29.058Z,16
2017-05-23T02:32:29.090Z,16
2017-05-23T02:33:29.126Z,16
2017-05-23T02:34:28.821Z,20
2017-05-23T02:36:29.166Z,24
2017-05-23T02:37:29.206Z,28
2017-05-23T02:38:29.230Z,32
2017-05-23T02:39:29.247Z,36
2017-05-23T02:40:29.261Z,40
2017-05-23T02:41:28.978Z,44
2017-05-23T02:42:29.313Z,52
2017-05-23T02:43:43.640Z,56
2017-05-23T02:44:43.962Z,60
2017-05-23T02:45:29.082Z,64
2017-05-23T02:46:44.021Z,76
2017-05-23T02:47:29.117Z,80
2017-05-23T02:49:29.479Z,100
2017-05-23T02:50:29.486Z,108
2017-05-23T02:51:29.283Z,116
2017-05-23T02:52:29.524Z,128
2017-05-23T02:53:29.560Z,136
2017-05-23T02:54:29.583Z,152
2017-05-23T02:55:29.601Z,160
2017-05-23T02:56:29.624Z,176
2017-05-23T02:57:29.730Z,188
2017-05-23T02:59:29.690Z,220
2017-05-23T03:00:29.413Z,236
2017-05-23T03:01:29.732Z,252
2017-05-23T03:02:29.770Z,276
2017-05-23T03:03:29.798Z,296
2017-05-23T03:04:44.430Z,324
2017-05-23T03:05:29.844Z,344
2017-05-23T03:06:29.562Z,376
2017-05-23T03:07:29.881Z,408
2017-05-23T03:08:29.921Z,448
2017-05-23T03:09:29.933Z,484
2017-05-23T03:10:29.941Z,524
2017-05-23T03:11:29.976Z,560
2017-05-23T03:12:44.603Z,604
2017-05-23T03:13:30.024Z,624
2017-05-23T03:14:30.029Z,660
2017-05-23T03:15:30.064Z,700
2017-05-23T03:16:44.695Z,756
2017-05-23T03:17:44.728Z,804
2017-05-23T03:18:30.122Z,844
2017-05-23T03:19:29.853Z,896
2017-05-23T03:21:30.207Z,1032
2017-05-23T03:22:30.206Z,1084
2017-05-23T03:23:30.240Z,1132
2017-05-23T03:24:30.258Z,1168
2017-05-23T03:25:30.281Z,1212
2017-05-23T03:27:30.036Z,1328
2017-05-23T03:28:30.368Z,1408
2017-05-23T03:30:30.089Z,1644
2017-05-23T03:31:30.412Z,1800
2017-05-23T03:32:45.070Z,2000
2017-05-23T03:33:30.462Z,2116
2017-05-23T03:36:30.242Z,2556
2017-05-23T03:37:30.563Z,2692
2017-05-23T03:39:30.616Z,2948
2017-05-23T03:40:45.244Z,3144
2017-05-23T03:41:30.631Z,3892
2017-05-23T03:42:30.688Z,4732
2017-05-23T03:43:30.385Z,4784
2017-05-23T03:44:30.412Z,3992
2017-05-23T03:45:30.427Z,3764
2017-05-23T03:46:30.760Z,4264
2017-05-23T03:47:30.793Z,4236
2017-05-23T03:48:45.417Z,4152
2017-05-23T03:49:30.843Z,4344
2017-05-23T03:50:30.564Z,4236
2017-05-23T03:51:30.879Z,4128
2017-05-23T03:52:45.509Z,4032
2017-05-23T03:53:45.531Z,4220
2017-05-23T03:54:30.947Z,4260
2017-05-23T03:55:30.978Z,4128
2017-05-23T03:56:31.007Z,4032
2017-05-23T03:57:31.009Z,3932
2017-05-23T03:58:45.047Z,3656
2017-05-23T03:59:31.069Z,3504
2017-05-23T04:00:31.090Z,3468
2017-05-23T04:01:31.105Z,3480
2017-05-23T04:02:31.130Z,3568
2017-05-23T04:03:30.860Z,3664
2017-05-23T04:04:45.792Z,3716
2017-05-23T04:06:31.220Z,3896
2017-05-23T04:08:31.279Z,4280
2017-05-23T04:11:31.337Z,5076
2017-05-23T04:12:45.972Z,5224
2017-05-23T04:13:46.011Z,5448
2017-05-23T04:14:31.405Z,5472
2017-05-23T04:15:31.459Z,5496
2017-05-23T04:16:31.162Z,5568
2017-05-23T04:17:31.487Z,5676
2017-05-23T04:18:31.501Z,5760
2017-05-23T04:19:46.158Z,5896
2017-05-23T04:20:31.548Z,5972
2017-05-23T04:21:31.577Z,6132
2017-05-23T04:23:31.327Z,6856
2017-05-23T04:24:31.655Z,6912
2017-05-23T04:25:31.666Z,6976
2017-05-23T04:26:31.707Z,7220
2017-05-23T04:28:31.744Z,7576
2017-05-23T04:29:31.760Z,8092
2017-05-23T04:30:31.782Z,8784
2017-05-23T04:31:31.816Z,8864
2017-05-23T04:32:31.849Z,8724
2017-05-23T04:33:31.850Z,9032
2017-05-23T04:34:31.887Z,11412
2017-05-23T04:35:31.606Z,18496
2017-05-23T04:36:46.249Z,14684
2017-05-23T04:37:31.958Z,12856
2017-05-23T04:38:31.996Z,25856
2017-05-23T04:39:32.012Z,38208
2017-05-23T04:41:32.051Z,29408
2017-05-23T04:42:32.082Z,28832
2017-05-23T04:43:32.099Z,31968
2017-05-23T04:44:32.121Z,31616
2017-05-23T04:45:32.477Z,32256
2017-05-23T04:46:32.179Z,34784
2017-05-23T04:47:32.199Z,34784
2017-05-23T04:48:32.218Z,41952
2017-05-23T04:49:31.948Z,47424
2017-05-23T04:50:32.282Z,50304
2017-05-23T04:51:46.915Z,50368
2017-05-23T04:52:32.021Z,50176
2017-05-23T04:53:32.360Z,51584
2017-05-23T04:54:32.383Z,55872
2017-05-23T04:55:32.393Z,54560
2017-05-23T04:56:32.437Z,49600
2017-05-23T04:58:32.489Z,50432
2017-05-23T04:59:32.528Z,51104
2017-05-23T05:00:47.159Z,54304
2017-05-23T05:01:32.585Z,54848
2017-05-23T05:02:47.212Z,55520
2017-05-23T05:03:32.640Z,59264
2017-05-23T05:04:32.662Z,60448
2017-05-23T05:05:32.691Z,59584
2017-05-23T05:06:32.721Z,54944
2017-05-23T05:07:47.354Z,46240
2017-05-23T05:08:32.467Z,47808
2017-05-23T05:09:32.499Z,52384
2017-05-23T05:10:47.446Z,57344
2017-05-23T05:11:32.879Z,55232
2017-05-23T05:12:32.900Z,54464
2017-05-23T05:13:32.620Z,51648
2017-05-23T05:14:32.641Z,52576
2017-05-23T05:17:32.751Z,52576
2017-05-23T05:18:33.079Z,50400
2017-05-23T05:19:32.806Z,52992
2017-05-23T05:20:33.133Z,58048
2017-05-23T05:21:33.169Z,60128
2017-05-23T05:22:33.216Z,65440
2017-05-23T05:23:47.862Z,66976
2017-05-23T05:24:33.276Z,62720
2017-05-23T05:26:33.321Z,65952
2017-05-23T05:27:33.356Z,70720
2017-05-23T05:28:33.418Z,67200
2017-05-23T05:29:33.135Z,66304
2017-05-23T05:30:33.167Z,59424
2017-05-23T05:31:33.547Z,52960
2017-05-23T05:32:33.535Z,45408
2017-05-23T05:33:48.172Z,47456
2017-05-23T05:34:33.283Z,48704
2017-05-23T05:35:33.630Z,56352
2017-05-23T05:36:33.670Z,63744
2017-05-23T05:37:33.685Z,55264
2017-05-23T05:38:33.718Z,61888
2017-05-23T05:39:48.366Z,77312
2017-05-23T05:40:33.793Z,72288
2017-05-23T05:41:33.833Z,68608
2017-05-23T05:42:48.475Z,66144
2017-05-23T05:43:48.504Z,67040
2017-05-23T05:44:33.614Z,67904
2017-05-23T05:45:33.961Z,69472
2017-05-23T05:46:33.977Z,68064
2017-05-23T05:47:34.010Z,67136
2017-05-23T05:48:33.748Z,69088
2017-05-23T05:49:33.797Z,69216
2017-05-23T05:50:48.740Z,70336
2017-05-23T05:51:34.169Z,69440
2017-05-23T05:52:34.197Z,66080
2017-05-23T05:53:33.917Z,67232
2017-05-23T05:54:48.889Z,70016
2017-05-23T05:55:48.924Z,73728
2017-05-23T05:56:34.021Z,75488
2017-05-23T05:57:34.069Z,71072
2017-05-23T05:58:49.025Z,68768
2017-05-23T05:59:34.453Z,70336
2017-05-23T06:00:34.478Z,68512
2017-05-23T06:01:34.215Z,77984
2017-05-23T06:03:34.582Z,80608
2017-05-23T06:04:34.312Z,80352
2017-05-23T06:05:34.339Z,78464
2017-05-23T06:06:34.370Z,73344
2017-05-23T06:07:34.417Z,71488
2017-05-23T06:08:34.743Z,71744
2017-05-23T06:09:49.098Z,71200
2017-05-23T06:10:34.828Z,73216
2017-05-23T06:11:34.562Z,73280
2017-05-23T06:12:34.893Z,76416
2017-05-23T06:13:34.937Z,79168
2017-05-23T06:14:34.967Z,81184
2017-05-23T06:15:34.994Z,76192
2017-05-23T06:16:49.661Z,80832
2017-05-23T06:17:35.082Z,83424
2017-05-23T06:18:35.112Z,84224
2017-05-23T06:19:35.165Z,80896
2017-05-23T06:20:35.192Z,82240
2017-05-23T06:21:35.229Z,81440
2017-05-23T06:22:35.261Z,79936
2017-05-23T06:23:35.305Z,79200
2017-05-23T06:24:35.342Z,78976
2017-05-23T06:25:35.068Z,78880
2017-05-23T06:27:35.445Z,79328
2017-05-23T06:28:35.168Z,79488
2017-05-23T06:30:35.552Z,78048
2017-05-23T06:31:35.580Z,77152
2017-05-23T06:32:35.643Z,77568
2017-05-23T06:33:35.659Z,75104
2017-05-23T06:34:35.700Z,74432
2017-05-23T06:35:35.435Z,72832
2017-05-23T06:36:35.173Z,70048
2017-05-23T06:37:35.493Z,69952
2017-05-23T06:38:35.531Z,70464
2017-05-23T06:39:50.192Z,72352
2017-05-23T06:40:35.930Z,75808
2017-05-23T06:41:36.026Z,74016
2017-05-23T06:42:50.620Z,65440
2017-05-23T06:43:36.038Z,67168
2017-05-23T06:44:36.120Z,67616
2017-05-23T06:45:36.105Z,72864
2017-05-23T06:46:36.155Z,73824
2017-05-23T06:47:50.802Z,72768
2017-05-23T06:48:36.240Z,72928
2017-05-23T06:49:36.262Z,71744
2017-05-23T06:50:36.304Z,71200
2017-05-23T06:51:36.341Z,70944
2017-05-23T06:53:36.415Z,67264
2017-05-23T06:54:36.463Z,64160
2017-05-23T06:55:51.098Z,66720
2017-05-23T06:56:50.842Z,65696
2017-05-23T06:57:36.563Z,66368
2017-05-23T06:58:51.204Z,69120
2017-05-23T06:59:36.636Z,67584
2017-05-23T07:00:36.689Z,65120
2017-05-23T07:01:36.712Z,60736
2017-05-23T07:02:36.449Z,58240
2017-05-23T07:03:50.797Z,54528
2017-05-23T07:04:36.527Z,51520
2017-05-23T07:05:36.857Z,52320
2017-05-23T07:06:36.896Z,60704
2017-05-23T07:07:36.643Z,57184
2017-05-23T07:08:36.670Z,57376
2017-05-23T07:09:51.326Z,59936
2017-05-23T07:10:36.738Z,62688
2017-05-23T07:11:37.087Z,65920
2017-05-23T07:12:36.820Z,67872
2017-05-23T07:13:36.867Z,63552
2017-05-23T07:15:37.249Z,65952
2017-05-23T07:17:37.318Z,63488
2017-05-23T07:18:37.058Z,63392
2017-05-23T07:19:37.382Z,63744
2017-05-23T07:20:52.048Z,63968
2017-05-23T07:21:37.464Z,61504
2017-05-23T07:22:37.212Z,62400
2017-05-23T07:24:37.268Z,63936
2017-05-23T07:25:52.235Z,62944
2017-05-23T07:26:37.666Z,59488
2017-05-23T07:27:52.310Z,59616
2017-05-23T07:28:37.746Z,61920
2017-05-23T07:29:52.077Z,62304
2017-05-23T07:30:37.814Z,59424
2017-05-23T07:31:37.913Z,55968
2017-05-23T07:32:37.285Z,58464
2017-05-23T07:33:37.921Z,57376
2017-05-23T07:34:37.961Z,53888
2017-05-23T07:35:38.015Z,53696
2017-05-23T07:36:38.045Z,55680
2017-05-23T07:37:37.772Z,56448
2017-05-23T07:38:38.126Z,58560
2017-05-23T07:39:52.770Z,59744
2017-05-23T07:40:37.885Z,61024
2017-05-23T07:41:37.929Z,59424
2017-05-23T07:42:38.274Z,60320
2017-05-23T07:43:52.919Z,58656
2017-05-23T07:44:37.731Z,57408
2017-05-23T07:45:38.074Z,46720
2017-05-23T07:46:38.104Z,47232
2017-05-23T07:47:38.469Z,49760
2017-05-23T07:48:38.491Z,50496
2017-05-23T07:49:38.551Z,49088
2017-05-23T07:50:38.575Z,51168
2017-05-23T07:51:38.306Z,46912
2017-05-23T07:52:38.345Z,41728
2017-05-23T07:53:53.306Z,48608
2017-05-23T07:54:38.733Z,50784
2017-05-23T07:55:38.766Z,42208
2017-05-23T07:56:38.805Z,51072
2017-05-23T07:57:38.851Z,50464
2017-05-23T07:58:38.872Z,52128
2017-05-23T07:59:38.597Z,52768
2017-05-23T08:00:38.950Z,53888
2017-05-23T08:01:53.305Z,55136
2017-05-23T08:02:39.041Z,56096
2017-05-23T08:03:38.759Z,52864
2017-05-23T08:04:39.111Z,50912
2017-05-23T08:05:39.138Z,54144
2017-05-23T08:06:38.883Z,52960
2017-05-23T08:07:38.908Z,50336
2017-05-23T08:08:39.249Z,50208
2017-05-23T08:09:38.977Z,38720
2017-05-23T08:10:39.327Z,26560
2017-05-23T08:11:39.362Z,22464
2017-05-23T08:12:39.405Z,21920
2017-05-23T08:13:53.755Z,21344
2017-05-23T08:14:39.191Z,21024
2017-05-23T08:16:39.246Z,20544
2017-05-23T08:17:54.215Z,20640
2017-05-23T08:18:39.633Z,20640
2017-05-23T08:19:39.684Z,20480
2017-05-23T08:20:39.397Z,20320
2017-05-23T08:21:39.745Z,20320
2017-05-23T08:22:39.781Z,20480
2017-05-23T08:23:39.816Z,20416
2017-05-23T08:24:39.855Z,20192
2017-05-23T08:25:39.589Z,18400
2017-05-23T08:26:39.946Z,18016
2017-05-23T08:27:39.996Z,18976
2017-05-23T08:28:40.020Z,18336
2017-05-23T08:29:40.058Z,19776
2017-05-23T08:30:40.085Z,20704
2017-05-23T08:31:40.129Z,20384
2017-05-23T08:32:39.861Z,20224
2017-05-23T08:33:54.515Z,19232
2017-05-23T08:34:40.247Z,17696
2017-05-23T08:35:39.972Z,18528
2017-05-23T08:36:40.312Z,18784
2017-05-23T08:37:40.052Z,18432
2017-05-23T08:38:40.397Z,18624
2017-05-23T08:39:40.443Z,18848
2017-05-23T08:40:40.464Z,19008
2017-05-23T08:41:40.514Z,19104
2017-05-23T08:42:40.546Z,18368
2017-05-23T08:43:40.588Z,19072
2017-05-23T08:44:40.605Z,19424
2017-05-23T08:45:40.642Z,19328
2017-05-23T08:46:40.384Z,19840
2017-05-23T08:48:55.388Z,20128
2017-05-23T08:49:55.418Z,19392
2017-05-23T08:51:40.557Z,18400
2017-05-23T08:52:55.534Z,18880
2017-05-23T08:53:40.951Z,18912
2017-05-23T08:54:40.683Z,19008
2017-05-23T08:55:41.088Z,18528
2017-05-23T08:56:40.757Z,17760
2017-05-23T08:57:40.790Z,17920
2017-05-23T08:58:40.828Z,18208
2017-05-23T08:59:40.888Z,17920
2017-05-23T09:00:40.900Z,17408
2017-05-23T09:01:41.250Z,17280
2017-05-23T09:02:40.676Z,18496
2017-05-23T09:03:41.002Z,18816
2017-05-23T09:04:55.662Z,18464
2017-05-23T09:05:41.391Z,18176
2017-05-23T09:06:41.415Z,17920
2017-05-23T09:07:40.850Z,17248
2017-05-23T09:08:41.509Z,17280
2017-05-23T09:09:41.533Z,16704
2017-05-23T09:10:41.582Z,15544
2017-05-23T09:11:41.611Z,15380
2017-05-23T09:12:41.655Z,15920
2017-05-23T09:13:56.306Z,17440
2017-05-23T09:14:41.737Z,17376
2017-05-23T09:16:41.855Z,17216
2017-05-23T09:17:56.143Z,17440
2017-05-23T09:18:41.866Z,17504
2017-05-23T09:19:42.067Z,17152
2017-05-23T09:20:56.574Z,17472
2017-05-23T09:21:41.666Z,17632
2017-05-23T09:22:41.716Z,17824
2017-05-23T09:24:28.451Z,17728
2017-05-23T09:24:56.692Z,17376
2017-05-23T09:25:41.812Z,17888
2017-05-23T09:26:42.144Z,18112
2017-05-23T09:27:56.807Z,16200
2017-05-23T09:28:42.221Z,14848
2017-05-23T09:29:42.251Z,14036
2017-05-23T09:30:42.287Z,16100
2017-05-23T09:31:42.328Z,16876
2017-05-23T09:32:42.365Z,17376
2017-05-23T09:33:42.109Z,17472
2017-05-23T09:34:42.133Z,17344
2017-05-23T09:36:57.127Z,16732
2017-05-23T09:37:42.243Z,16696
2017-05-23T09:38:42.582Z,16612
2017-05-23T09:39:42.613Z,16468
2017-05-23T09:40:42.654Z,16316
2017-05-23T09:41:57.005Z,16124
2017-05-23T09:42:42.726Z,16092
2017-05-23T09:43:42.520Z,16036
2017-05-23T09:44:42.495Z,16068
2017-05-23T09:45:57.148Z,16044
2017-05-23T09:47:42.604Z,8536
2017-05-23T09:48:42.638Z,8224
2017-05-23T09:49:42.980Z,8348
2017-05-23T09:50:43.018Z,12912
2017-05-23T09:51:43.050Z,11552
2017-05-23T09:52:57.400Z,15232
2017-05-23T09:53:43.124Z,15484
2017-05-23T09:54:43.156Z,15508
2017-05-23T09:55:43.200Z,15404
2017-05-23T09:56:43.228Z,15620
2017-05-23T09:57:43.270Z,15836
2017-05-23T09:58:57.917Z,16128
2017-05-23T09:59:43.337Z,16336
2017-05-23T10:00:43.366Z,16584
2017-05-23T10:01:43.401Z,16656
2017-05-23T10:02:58.067Z,16452
2017-05-23T10:03:43.479Z,16344
2017-05-23T10:04:43.207Z,16192
2017-05-23T10:05:43.609Z,16068
2017-05-23T10:06:43.278Z,15776
2017-05-23T10:07:43.013Z,15620
2017-05-23T10:08:58.269Z,15456
2017-05-23T10:09:43.082Z,15376
2017-05-23T10:10:43.116Z,15300
2017-05-23T10:11:43.455Z,15228
2017-05-23T10:12:58.111Z,14996
2017-05-23T10:13:43.526Z,14776
2017-05-23T10:14:58.492Z,14800
2017-05-23T10:15:43.900Z,14696
2017-05-23T10:16:58.252Z,14532
2017-05-23T10:17:43.977Z,14436
2017-05-23T10:18:44.004Z,14312
2017-05-23T10:19:43.741Z,14112
2017-05-23T10:20:44.078Z,13964
2017-05-23T10:21:43.818Z,13768
2017-05-23T10:22:43.847Z,13476
2017-05-23T10:23:44.179Z,13164
2017-05-23T10:24:58.537Z,12892
2017-05-23T10:25:43.949Z,12796
2017-05-23T10:26:43.984Z,12800
2017-05-23T10:27:44.026Z,12924
2017-05-23T10:28:58.977Z,13004
2017-05-23T10:29:44.090Z,13120
2017-05-23T10:30:44.125Z,13112
2017-05-23T10:31:44.467Z,13112
2017-05-23T10:32:44.198Z,13100
2017-05-23T10:34:44.277Z,13108
2017-05-23T10:35:44.605Z,13240
2017-05-23T10:36:44.636Z,13240
2017-05-23T10:37:44.376Z,13188
2017-05-23T10:38:44.720Z,12956
2017-05-23T10:39:59.418Z,13024
2017-05-23T10:40:44.478Z,12980
2017-05-23T10:41:44.824Z,12400
2017-05-23T10:42:44.548Z,12484
2017-05-23T10:43:44.575Z,12524
2017-05-23T10:44:44.616Z,12476
2017-05-23T10:45:44.651Z,12384
2017-05-23T10:46:44.682Z,11676
2017-05-23T10:47:44.719Z,11388
2017-05-23T10:48:44.753Z,12004
2017-05-23T10:49:59.403Z,11664
2017-05-23T10:50:44.827Z,11372
2017-05-23T10:51:59.777Z,11840
2017-05-23T10:52:45.192Z,11908
2017-05-23T10:53:45.237Z,12004
2017-05-23T10:54:45.262Z,11624
2017-05-23T10:55:59.920Z,11044
2017-05-23T10:56:45.334Z,11376
2017-05-23T10:57:45.365Z,11380
2017-05-23T10:58:45.403Z,11104
2017-05-23T10:59:44.820Z,10884
2017-05-23T11:01:00.091Z,11316
2017-05-23T11:02:00.117Z,9408
2017-05-23T11:02:59.559Z,6440
2017-05-23T11:03:45.264Z,6992
2017-05-23T11:05:45.639Z,6788
2017-05-23T11:06:45.369Z,6740
2017-05-23T11:07:45.704Z,11848
2017-05-23T11:08:45.737Z,11824
2017-05-23T11:09:45.465Z,11776
2017-05-23T11:10:45.799Z,11752
2017-05-23T11:12:00.463Z,11648
2017-05-23T11:12:45.574Z,11512
2017-05-23T11:13:45.909Z,11496
2017-05-23T11:14:45.326Z,11516
2017-05-23T11:15:59.983Z,11156
2017-05-23T11:17:00.318Z,11056
2017-05-23T11:17:45.428Z,11092
2017-05-23T11:19:00.398Z,10964
2017-05-23T11:20:00.727Z,10716
2017-05-23T11:20:45.836Z,10548
2017-05-23T11:22:45.899Z,10432
2017-05-23T11:23:45.933Z,10396
2017-05-23T11:24:45.970Z,10384
2017-05-23T11:25:46.000Z,10184
2017-05-23T11:26:46.338Z,9996
2017-05-23T11:28:00.991Z,9656
2017-05-23T11:28:46.413Z,9336
2017-05-23T11:29:46.441Z,9460
2017-05-23T11:30:46.475Z,9136
2017-05-23T11:31:46.196Z,9148
2017-05-23T11:33:00.852Z,9024
2017-05-23T11:33:46.272Z,8848
2017-05-23T11:34:46.302Z,8676
2017-05-23T11:35:46.642Z,8672
2017-05-23T11:36:46.670Z,8592
2017-05-23T11:38:00.714Z,8644
2017-05-23T11:39:01.049Z,8580
2017-05-23T11:39:46.467Z,8316
2017-05-23T11:41:01.429Z,8212
2017-05-23T11:41:46.836Z,8232
2017-05-23T11:42:46.261Z,7972
2017-05-23T11:44:01.523Z,6788
2017-05-23T11:44:46.023Z,5612
2017-05-23T11:45:46.668Z,7344
2017-05-23T11:46:47.000Z,7848
2017-05-23T11:49:01.075Z,7716
2017-05-23T11:49:46.798Z,7696
2017-05-23T11:50:47.135Z,7784
2017-05-23T11:51:47.173Z,7880
2017-05-23T11:52:47.203Z,7824
2017-05-23T11:53:46.931Z,7684
2017-05-23T11:54:47.270Z,7544
2017-05-23T11:55:47.599Z,7340
2017-05-23T11:57:01.998Z,7488
2017-05-23T11:57:47.059Z,7596
2017-05-23T11:58:47.089Z,7760
2017-05-23T12:00:02.043Z,7848
2017-05-23T12:00:47.457Z,7916
2017-05-23T12:01:47.486Z,7936
2017-05-23T12:03:01.839Z,7816
2017-05-23T12:04:02.173Z,7772
2017-05-23T12:05:02.204Z,7716
2017-05-23T12:05:47.617Z,7660
2017-05-23T12:06:47.342Z,7580
2017-05-23T12:07:47.680Z,7536
2017-05-23T12:08:47.411Z,7392
2017-05-23T12:09:47.449Z,7504
2017-05-23T12:10:47.166Z,7560
2017-05-23T12:11:47.814Z,7572
2017-05-23T12:12:47.539Z,7684
2017-05-23T12:13:47.877Z,7464
2017-05-23T12:15:02.526Z,7348
2017-05-23T12:15:47.943Z,7260
2017-05-23T12:16:47.980Z,7080
2017-05-23T12:18:02.626Z,6904
2017-05-23T12:18:47.735Z,6676
2017-05-23T12:19:48.071Z,6744
2017-05-23T12:20:48.106Z,6684
2017-05-23T12:22:02.751Z,6724
2017-05-23T12:22:48.173Z,6820
2017-05-23T12:23:47.895Z,6864
2017-05-23T12:25:02.850Z,6852
2017-05-23T12:25:48.258Z,6836
2017-05-23T12:26:47.990Z,6824
2017-05-23T12:27:48.027Z,6764
2017-05-23T12:28:48.054Z,6720
2017-05-23T12:29:48.393Z,6984
2017-05-23T12:30:48.428Z,7296
2017-05-23T12:31:48.457Z,7400
2017-05-23T12:34:02.831Z,7252
2017-05-23T12:34:47.945Z,7144
2017-05-23T12:36:03.200Z,6876
2017-05-23T12:36:48.608Z,6588
2017-05-23T12:37:48.345Z,6664
2017-05-23T12:38:48.378Z,6728
2017-05-23T12:39:48.706Z,6688
2017-05-23T12:40:48.434Z,6608
2017-05-23T12:41:48.775Z,6780
2017-05-23T12:42:48.500Z,6728
2017-05-23T12:43:48.838Z,6816
2017-05-23T12:44:48.869Z,6860
2017-05-23T12:45:48.593Z,6904
2017-05-23T12:47:03.546Z,6764
2017-05-23T12:47:48.961Z,6756
2017-05-23T12:48:48.993Z,6964
2017-05-23T12:49:49.023Z,7036
2017-05-23T12:51:49.087Z,7148
2017-05-23T12:52:49.122Z,7136
2017-05-23T12:53:49.155Z,6952
2017-05-23T12:54:49.186Z,7072
2017-05-23T12:55:48.910Z,6932
2017-05-23T12:58:03.890Z,7560
2017-05-23T12:58:49.308Z,7360
2017-05-23T12:59:49.336Z,6276
2017-05-23T13:00:49.069Z,5200
2017-05-23T13:01:49.097Z,5076
2017-05-23T13:03:04.114Z,5016
2017-05-23T13:03:49.471Z,5604
2017-05-23T13:04:49.506Z,6528
2017-05-23T13:05:49.527Z,6800
2017-05-23T13:06:48.958Z,6988
2017-05-23T13:07:49.288Z,6636
2017-05-23T13:09:03.938Z,6736
2017-05-23T13:10:49.382Z,6676
2017-05-23T13:11:49.112Z,6604
2017-05-23T13:13:04.361Z,6680
2017-05-23T13:13:49.787Z,6808
2017-05-23T13:14:49.819Z,6884
2017-05-23T13:15:49.841Z,7156
2017-05-23T13:16:49.876Z,7468
2017-05-23T13:17:49.298Z,7968
2017-05-23T13:19:04.555Z,8316
2017-05-23T13:19:49.969Z,8496
2017-05-23T13:20:49.996Z,8648
2017-05-23T13:21:50.028Z,8956
2017-05-23T13:22:49.816Z,8640
2017-05-23T13:23:49.792Z,8896
2017-05-23T13:24:49.518Z,9024
2017-05-23T13:25:50.157Z,9032
2017-05-23T13:27:04.807Z,9444
2017-05-23T13:27:50.232Z,9460
2017-05-23T13:28:50.261Z,9140
2017-05-23T13:30:50.309Z,8912
2017-05-23T13:31:50.349Z,8692
2017-05-23T13:32:50.679Z,8612
2017-05-23T13:33:50.409Z,8292
2017-05-23T13:35:04.749Z,7992
2017-05-23T13:35:50.472Z,7932
2017-05-23T13:36:50.195Z,8012
2017-05-23T13:37:50.226Z,8088
2017-05-23T13:38:50.566Z,8304
2017-05-23T13:40:50.629Z,9080
2017-05-23T13:42:05.272Z,9200
2017-05-23T13:42:50.080Z,9260
2017-05-23T13:43:50.411Z,9748
2017-05-23T13:44:50.445Z,9600
2017-05-23T13:45:50.814Z,9644
2017-05-23T13:46:50.813Z,9860
2017-05-23T13:47:50.848Z,9812
2017-05-23T13:48:50.876Z,9844
2017-05-23T13:50:05.218Z,9608
2017-05-23T13:50:50.637Z,9668
2017-05-23T13:51:50.968Z,9764
2017-05-23T13:52:51.001Z,10552
2017-05-23T13:53:50.727Z,10208
2017-05-23T13:54:51.066Z,10696
2017-05-23T13:55:51.093Z,10884
2017-05-23T13:56:50.824Z,10472
2017-05-23T13:57:51.165Z,10308
2017-05-23T13:58:50.885Z,10288
2017-05-23T13:59:51.230Z,8364
2017-05-23T14:01:50.983Z,7900
2017-05-23T14:02:51.321Z,7612
2017-05-23T14:03:51.044Z,8712
2017-05-23T14:04:51.381Z,8512
2017-05-23T14:05:51.416Z,9020
2017-05-23T14:06:51.452Z,7368
2017-05-23T14:07:50.864Z,7624
2017-05-23T14:08:51.199Z,7756
2017-05-23T14:09:50.928Z,7032
2017-05-23T14:10:51.265Z,7144
2017-05-23T14:12:06.218Z,8080
2017-05-23T14:13:06.255Z,8124
2017-05-23T14:13:51.368Z,7596
2017-05-23T14:14:51.757Z,7696